createdAt,value
2017-10-11T00:05:31.730Z,21.9
2017-10-11T00:15:47.036Z,22.4
2017-10-11T00:26:02.602Z,23.5
2017-10-11T00:36:18.074Z,25.3
2017-10-11T00:46:32.716Z,27.7
2017-10-11T00:56:46.694Z,29
2017-10-11T01:07:00.757Z,29.2
2017-10-11T01:17:14.502Z,25.8
2017-10-11T01:27:30.212Z,25.1
2017-10-11T01:37:44.995Z,23.9
2017-10-11T01:47:59.813Z,23
2017-10-11T01:58:15.521Z,22.8
2017-10-11T02:08:30.422Z,22.5
2017-10-11T02:18:45.656Z,24.8
2017-10-11T02:28:59.410Z,26.1
2017-10-11T02:39:14.143Z,25.5
2017-10-11T02:49:28.843Z,24.4
2017-10-11T02:59:44.342Z,25.3
2017-10-11T03:09:58.899Z,27.2
2017-10-11T03:20:13.315Z,30.2
2017-10-11T03:30:27.160Z,33.2
2017-10-11T03:40:42.456Z,34.4
2017-10-11T03:50:56.798Z,34.1
2017-10-11T04:01:11.766Z,35.3
2017-10-11T04:11:26.186Z,28.3
2017-10-11T04:21:40.461Z,24.3
2017-10-11T04:31:55.348Z,24.7
2017-10-11T04:42:09.272Z,28.8
2017-10-11T04:52:24.048Z,32.7
2017-10-11T05:02:39.483Z,36.3
2017-10-11T05:12:54.469Z,35.7
2017-10-11T05:23:09.227Z,37.3
2017-10-11T05:33:23.988Z,37.5
2017-10-11T05:43:38.573Z,38.4
2017-10-11T05:53:53.339Z,38.9
2017-10-11T06:04:08.687Z,38.9
2017-10-11T06:14:23.084Z,39.4
2017-10-11T06:24:37.484Z,40.6
2017-10-11T06:34:53.191Z,41.6
2017-10-11T06:45:07.855Z,41.8
2017-10-11T06:55:22.324Z,40.9
2017-10-11T07:05:37.096Z,42
2017-10-11T07:15:52.377Z,42
2017-10-11T07:26:08.097Z,41.6
2017-10-11T07:36:22.373Z,43.2
2017-10-11T07:46:36.937Z,45.1
2017-10-11T07:56:51.744Z,48.1
2017-10-11T08:07:06.814Z,47.1
2017-10-11T08:17:21.324Z,47.7
2017-10-11T08:27:36.538Z,51.3
2017-10-11T08:37:51.324Z,52.9
2017-10-11T08:48:06.615Z,54.2
2017-10-11T08:58:20.693Z,54.5
2017-10-11T09:08:34.856Z,58.1
2017-10-11T09:18:48.754Z,61.4
2017-10-11T09:29:02.991Z,64.4
2017-10-11T09:39:18.132Z,63.9
2017-10-11T09:49:32.828Z,64.2
2017-10-11T09:59:48.053Z,64.2
2017-10-11T10:10:03.165Z,62.4
2017-10-11T10:20:17.817Z,64.1
2017-10-11T10:30:32.839Z,64.6
2017-10-11T10:40:47.413Z,66.9
2017-10-11T10:51:02.255Z,70.1
2017-10-11T11:01:17.064Z,78.9
2017-10-11T11:11:31.277Z,84.3
2017-10-11T11:21:45.744Z,88.5
2017-10-11T11:32:01.109Z,89.2
2017-10-11T11:42:16.142Z,89.6
2017-10-11T11:52:30.337Z,89.2
2017-10-11T12:02:45.113Z,86.1
2017-10-11T12:12:59.175Z,79.8
2017-10-11T12:23:13.427Z,72.8
2017-10-11T12:33:27.949Z,73.3
2017-10-11T12:43:43.121Z,79.4
2017-10-11T12:53:57.138Z,82.8
2017-10-11T13:04:11.578Z,84.8
2017-10-11T13:14:27.229Z,87.8
2017-10-11T13:24:41.414Z,85.3
2017-10-11T13:34:55.423Z,85.8
2017-10-11T13:45:09.966Z,87.3
2017-10-11T13:55:26.397Z,86.5
2017-10-11T14:05:39.294Z,84.6
2017-10-11T14:15:54.604Z,83.4
2017-10-11T14:26:09.865Z,81.9
2017-10-11T14:36:24.284Z,81
2017-10-11T14:46:38.333Z,80.5
2017-10-11T14:56:52.488Z,79.8
2017-10-11T15:07:06.585Z,80.4
2017-10-11T15:17:23.283Z,80.9
2017-10-11T15:27:36.302Z,79.3
2017-10-11T15:37:51.481Z,77.6
2017-10-11T15:48:07.244Z,76.3
2017-10-11T15:58:20.967Z,76.3
2017-10-11T16:08:36.076Z,75.3
2017-10-11T16:18:52.452Z,74.1
2017-10-11T16:29:06.214Z,73.1
2017-10-11T16:39:21.951Z,72.8
2017-10-11T16:49:36.754Z,73.7
2017-10-11T16:59:52.095Z,74.5
2017-10-11T17:10:05.661Z,73.1
2017-10-11T17:20:20.101Z,74.4
2017-10-11T17:30:34.638Z,72.8
2017-10-11T17:40:49.563Z,71.8
2017-10-11T17:51:04.745Z,71.2
2017-10-11T18:01:19.837Z,69.6
2017-10-11T18:11:34.787Z,69.1
2017-10-11T18:21:49.279Z,67.9
2017-10-11T18:32:03.900Z,65.9
2017-10-11T18:42:17.977Z,62
2017-10-11T18:52:33.674Z,59.5
2017-10-11T19:02:48.576Z,57.3
2017-10-11T19:13:03.154Z,55.2
2017-10-11T19:23:18.330Z,57.8
2017-10-11T19:33:33.053Z,59.1
2017-10-11T19:43:47.910Z,63.7
2017-10-11T19:54:01.865Z,68.1
2017-10-11T20:04:16.957Z,72.3
2017-10-11T20:14:31.051Z,75.7
2017-10-11T20:24:44.363Z,74.4
2017-10-11T20:34:59.409Z,75.8
2017-10-11T20:45:14.561Z,75.8
2017-10-11T20:55:28.918Z,76.7
2017-10-11T21:05:43.893Z,75.8
2017-10-11T21:15:58.646Z,76.1
2017-10-11T21:26:12.509Z,73.4
2017-10-11T21:36:26.518Z,71.9
2017-10-11T21:46:41.730Z,69
2017-10-11T21:56:56.472Z,68.9
2017-10-11T22:07:09.812Z,71.3
2017-10-11T22:17:25.737Z,72.7
2017-10-11T22:27:39.023Z,73.1
2017-10-11T22:37:53.242Z,75.2
2017-10-11T22:48:09.276Z,79.9
2017-10-11T22:58:26.304Z,83.2
2017-10-11T23:08:38.583Z,85.3
2017-10-11T23:18:54.244Z,85.7
2017-10-11T23:29:07.921Z,86.1
2017-10-11T23:39:22.430Z,86.5
2017-10-11T23:49:38.356Z,86.6
2017-10-11T23:59:52.462Z,86.6
